createdAt,value
2019-05-12T00:01:38.937Z,99443.19
2019-05-12T00:04:11.709Z,99449.82
2019-05-12T00:06:44.450Z,99449.82
2019-05-12T00:09:18.789Z,99460.68
2019-05-12T00:11:50.808Z,99460.95
2019-05-12T00:14:23.294Z,99466.04
2019-05-12T00:16:57.881Z,99451.41
2019-05-12T00:19:31.509Z,99463.38
2019-05-12T00:22:04.309Z,99463.38
2019-05-12T00:24:38.336Z,99470.62
2019-05-12T00:27:17.718Z,99465.21
2019-05-12T00:29:49.630Z,99474.71
2019-05-12T00:32:22.290Z,99479.09
2019-05-12T00:34:54.818Z,99483.67
2019-05-12T00:37:29.661Z,99483.67
2019-05-12T00:40:02.483Z,99488.23
2019-05-12T00:42:35.016Z,99493.53
2019-05-12T00:45:09.686Z,99495.53
2019-05-12T00:47:43.673Z,99493.72
2019-05-12T00:50:18.324Z,99494.41
2019-05-12T00:52:50.682Z,99498.77
2019-05-12T00:55:23.307Z,99494.33
2019-05-12T00:57:57.891Z,99473.31
2019-05-12T01:00:29.818Z,99475.87
2019-05-12T01:03:02.307Z,99475.87
2019-05-12T01:05:34.631Z,99500.47
2019-05-12T01:08:08.904Z,99500.47
2019-05-12T01:10:43.150Z,99498.47
2019-05-12T01:13:15.520Z,99507.23
2019-05-12T01:15:48.215Z,99506.16
2019-05-12T01:18:20.656Z,99513.50
2019-05-12T01:20:53.281Z,99513.50
2019-05-12T01:23:27.933Z,99527.89
2019-05-12T01:25:59.737Z,99530.25
2019-05-12T01:28:34.496Z,99530.25
2019-05-12T01:31:08.661Z,99529.70
2019-05-12T01:33:41.334Z,99528.45
2019-05-12T01:36:15.044Z,99538.65
2019-05-12T01:38:48.301Z,99540.71
2019-05-12T01:41:21.047Z,99539.20
2019-05-12T01:43:53.481Z,99544.80
2019-05-12T01:46:28.830Z,99547.33
2019-05-12T01:49:01.611Z,99555.77
2019-05-12T01:51:34.031Z,99555.77
2019-05-12T01:54:11.795Z,99562.06
2019-05-12T01:56:40.605Z,99568.66
2019-05-12T01:59:13.042Z,99563.24
2019-05-12T02:01:44.634Z,99566.03
2019-05-12T02:04:18.830Z,99570.32
2019-05-12T02:06:52.723Z,99581.97
2019-05-12T02:09:28.000Z,99580.65
2019-05-12T02:12:00.658Z,99592.57
2019-05-12T02:14:33.284Z,99586.34
2019-05-12T02:17:05.584Z,99562.91
2019-05-12T02:19:39.571Z,99562.91
2019-05-12T02:22:12.293Z,99599.20
2019-05-12T02:24:45.302Z,99609.55
2019-05-12T02:27:17.892Z,99601.06
2019-05-12T02:29:50.306Z,99601.06
2019-05-12T02:32:25.271Z,99614.92
2019-05-12T02:34:56.720Z,99614.92
2019-05-12T02:37:29.287Z,99624.57
2019-05-12T02:40:04.506Z,99630.34
2019-05-12T02:42:35.229Z,99630.63
2019-05-12T02:45:10.566Z,99629.52
2019-05-12T02:47:45.603Z,99631.34
2019-05-12T02:50:34.924Z,99647.36
2019-05-12T02:53:06.481Z,99648.47
2019-05-12T02:55:39.536Z,99647.80
2019-05-12T02:58:16.288Z,99656.38
2019-05-12T03:00:49.425Z,99665.89
2019-05-12T03:03:28.034Z,99665.89
2019-05-12T03:06:05.516Z,99675.06
2019-05-12T03:08:39.779Z,99678.81
2019-05-12T03:11:14.800Z,99682.77
2019-05-12T03:13:46.815Z,99697.06
2019-05-12T03:16:19.285Z,99691.30
2019-05-12T03:18:51.690Z,99674.03
2019-05-12T03:21:24.653Z,99674.03
2019-05-12T03:23:57.298Z,99701.50
2019-05-12T03:26:29.560Z,99700.17
2019-05-12T03:29:05.686Z,99700.17
2019-05-12T03:31:41.503Z,99719.06
2019-05-12T03:34:18.545Z,99710.52
2019-05-12T03:36:51.164Z,99710.52
2019-05-12T03:39:21.429Z,99728.77
2019-05-12T03:41:54.618Z,99732.87
2019-05-12T03:44:28.618Z,99735.16
2019-05-12T03:47:01.127Z,99741.10
2019-05-12T03:51:27.296Z,99745.35
2019-05-12T03:53:59.598Z,99751.84
2019-05-12T03:58:59.041Z,99753.11
2019-05-12T04:01:31.564Z,99765.66
2019-05-12T04:04:05.621Z,99767.80
2019-05-12T04:06:38.415Z,99766.93
2019-05-12T04:09:14.657Z,99770.58
2019-05-12T04:11:46.319Z,99774.23
2019-05-12T04:14:20.289Z,99778.68
2019-05-12T04:16:55.120Z,99766.00
2019-05-12T04:19:29.547Z,99766.00
2019-05-12T04:22:05.308Z,99781.13
2019-05-12T04:24:36.244Z,99788.34
2019-05-12T04:27:10.326Z,99796.74
2019-05-12T04:29:44.174Z,99793.61
2019-05-12T04:32:15.906Z,99801.33
2019-05-12T04:34:48.387Z,99801.33
2019-05-12T04:37:24.898Z,99810.17
2019-05-12T04:39:57.359Z,99814.96
2019-05-12T04:42:29.662Z,99823.54
2019-05-12T04:45:04.394Z,99823.54
2019-05-12T04:47:37.333Z,99828.81
2019-05-12T04:50:10.291Z,99826.97
2019-05-12T04:52:44.589Z,99831.56
2019-05-12T04:55:16.883Z,99835.21
2019-05-12T04:57:49.326Z,99839.17
2019-05-12T05:00:25.442Z,99840.67
2019-05-12T05:04:56.345Z,99850.05
2019-05-12T05:07:28.642Z,99850.20
2019-05-12T05:10:04.481Z,99850.20
2019-05-12T05:12:35.432Z,99875.55
2019-05-12T05:15:09.610Z,99873.55
2019-05-12T05:17:44.084Z,99875.39
2019-05-12T05:20:16.792Z,99881.98
2019-05-12T05:22:49.308Z,99881.98
2019-05-12T05:25:23.658Z,99883.98
2019-05-12T05:27:55.786Z,99883.98
2019-05-12T05:30:28.295Z,99896.82
2019-05-12T05:33:04.659Z,99903.41
2019-05-12T05:35:39.842Z,99909.67
2019-05-12T05:38:19.080Z,99913.95
2019-05-12T05:40:47.860Z,99920.88
2019-05-12T05:43:20.654Z,99924.84
2019-05-12T05:46:02.731Z,99927.75
2019-05-12T05:48:32.173Z,99932.72
2019-05-12T05:51:05.888Z,99934.00
2019-05-12T05:53:37.237Z,99934.00
2019-05-12T05:56:09.598Z,99937.95
2019-05-12T05:58:47.047Z,99946.47
2019-05-12T06:01:17.207Z,99944.50
2019-05-12T06:03:49.735Z,99949.15
2019-05-12T06:06:23.767Z,99945.00
2019-05-12T06:08:59.909Z,99946.66
2019-05-12T06:11:35.375Z,99950.23
2019-05-12T06:14:12.949Z,99957.16
2019-05-12T06:16:43.345Z,99961.23
2019-05-12T06:19:17.292Z,99971.39
2019-05-12T06:21:53.413Z,99969.30
2019-05-12T06:24:25.876Z,99969.30
2019-05-12T06:27:00.817Z,99977.66
2019-05-12T06:29:35.327Z,99981.36
2019-05-12T06:32:10.781Z,99981.33
2019-05-12T06:34:43.549Z,99984.25
2019-05-12T06:37:17.395Z,99991.53
2019-05-12T06:39:50.930Z,99995.05
2019-05-12T06:42:26.647Z,99995.05
2019-05-12T06:44:59.422Z,100005.37
2019-05-12T06:47:34.365Z,100007.37
2019-05-12T06:50:08.703Z,100006.73
2019-05-12T06:52:44.590Z,100003.50
2019-05-12T06:55:15.510Z,100003.70
2019-05-12T06:57:50.286Z,100006.54
2019-05-12T07:00:30.847Z,100006.58
2019-05-12T07:02:56.853Z,100014.06
2019-05-12T07:08:17.849Z,100015.73
2019-05-12T07:10:57.805Z,100008.67
2019-05-12T07:13:24.878Z,100008.67
2019-05-12T07:15:58.315Z,100028.30
2019-05-12T07:18:36.951Z,100021.25
2019-05-12T07:21:09.425Z,100021.25
2019-05-12T07:23:44.439Z,100037.55
2019-05-12T07:26:19.308Z,100036.73
2019-05-12T07:28:53.922Z,100033.77
2019-05-12T07:31:26.329Z,100034.51
2019-05-12T07:33:58.977Z,100033.95
2019-05-12T07:36:34.297Z,100033.95
2019-05-12T07:39:09.548Z,100046.63
2019-05-12T07:41:50.642Z,100046.63
2019-05-12T07:44:22.094Z,100057.03
2019-05-12T07:46:54.214Z,100057.03
2019-05-12T07:49:34.219Z,100064.49
2019-05-12T07:52:03.414Z,100073.41
2019-05-12T07:54:39.302Z,100073.93
2019-05-12T07:57:12.233Z,100079.33
2019-05-12T07:59:43.789Z,100076.36
2019-05-12T08:02:23.259Z,100076.36
2019-05-12T08:04:55.271Z,100091.55
2019-05-12T08:07:29.839Z,100098.91
2019-05-12T08:10:07.172Z,100095.26
2019-05-12T08:12:37.706Z,100093.28
2019-05-12T08:15:13.600Z,100095.33
2019-05-12T08:17:49.327Z,100094.99
2019-05-12T08:20:23.752Z,100092.94
2019-05-12T08:22:59.606Z,100073.05
2019-05-12T08:25:29.787Z,100080.05
2019-05-12T08:28:12.321Z,100080.05
2019-05-12T08:30:45.805Z,100093.07
2019-05-12T08:33:14.717Z,100086.56
2019-05-12T08:35:48.423Z,100096.67
2019-05-12T08:38:21.003Z,100085.90
2019-05-12T08:40:54.332Z,100090.56
2019-05-12T08:43:27.291Z,100095.53
2019-05-12T08:46:00.354Z,100084.03
2019-05-12T08:48:34.567Z,100084.03
2019-05-12T08:51:14.361Z,100105.04
2019-05-12T08:53:43.982Z,100098.08
2019-05-12T08:56:19.393Z,100094.98
2019-05-12T08:58:54.362Z,100101.55
2019-05-12T09:01:30.769Z,100099.86
2019-05-12T09:04:06.559Z,100099.86
2019-05-12T09:06:36.910Z,100103.43
2019-05-12T09:09:11.440Z,100108.89
2019-05-12T09:11:44.181Z,100121.38
2019-05-12T09:14:16.893Z,100121.22
2019-05-12T09:16:53.753Z,100121.22
2019-05-12T09:19:26.657Z,100119.31
2019-05-12T09:21:58.043Z,100125.93
2019-05-12T09:24:29.560Z,100121.55
2019-05-12T09:27:04.983Z,100131.13
2019-05-12T09:29:37.674Z,100135.10
2019-05-12T09:32:14.739Z,100135.10
2019-05-12T09:34:52.954Z,100149.84
2019-05-12T09:37:24.630Z,100140.17
2019-05-12T09:39:57.042Z,100136.52
2019-05-12T09:42:30.165Z,100143.58
2019-05-12T09:45:06.054Z,100139.66
2019-05-12T09:47:37.339Z,100139.66
2019-05-12T09:50:18.244Z,100117.20
2019-05-12T09:52:48.963Z,100117.20
2019-05-12T09:55:24.786Z,100148.22
2019-05-12T09:57:56.748Z,100161.69
2019-05-12T10:00:30.291Z,100161.69
2019-05-12T10:03:04.862Z,100172.05
2019-05-12T10:05:41.165Z,100174.59
2019-05-12T10:08:13.919Z,100174.09
2019-05-12T10:10:53.609Z,100171.27
2019-05-12T10:13:30.046Z,100177.11
2019-05-12T10:16:07.420Z,100171.38
2019-05-12T10:18:34.679Z,100172.95
2019-05-12T10:21:10.186Z,100169.78
2019-05-12T10:23:43.487Z,100170.93
2019-05-12T10:26:19.063Z,100162.23
2019-05-12T10:28:57.880Z,100162.23
2019-05-12T10:31:29.575Z,100178.95
2019-05-12T10:34:20.667Z,100184.05
2019-05-12T10:36:58.668Z,100179.66
2019-05-12T10:39:43.302Z,100173.02
2019-05-12T10:42:17.820Z,100172.61
2019-05-12T10:44:53.261Z,100172.61
2019-05-12T10:47:24.467Z,100171.94
2019-05-12T10:49:56.733Z,100178.92
2019-05-12T10:52:33.928Z,100185.05
2019-05-12T10:55:04.441Z,100184.89
2019-05-12T10:57:37.061Z,100185.03
2019-05-12T11:00:19.662Z,100187.09
2019-05-12T11:02:53.516Z,100191.72
2019-05-12T11:05:26.225Z,100199.45
2019-05-12T11:08:00.334Z,100196.43
2019-05-12T11:10:33.662Z,100200.45
2019-05-12T11:14:09.637Z,100193.02
2019-05-12T11:16:44.539Z,100198.44
2019-05-12T11:19:16.291Z,100204.97
2019-05-12T11:21:50.326Z,100203.02
2019-05-12T11:24:22.726Z,100190.97
2019-05-12T11:26:55.341Z,100190.97
2019-05-12T11:29:27.694Z,100211.38
2019-05-12T11:32:00.372Z,100211.38
2019-05-12T11:34:33.578Z,100216.67
2019-05-12T11:37:06.289Z,100215.97
2019-05-12T11:39:44.356Z,100175.24
2019-05-12T11:42:13.661Z,100188.50
2019-05-12T11:44:47.478Z,100188.50
2019-05-12T11:47:24.431Z,100204.06
2019-05-12T11:49:58.517Z,100206.14
2019-05-12T11:52:28.682Z,100209.65
2019-05-12T11:55:02.610Z,100209.65
2019-05-12T11:57:35.306Z,100221.83
2019-05-12T12:00:13.631Z,100221.89
2019-05-12T12:02:45.393Z,100221.89
2019-05-12T12:05:17.837Z,100222.95
2019-05-12T12:07:52.741Z,100222.95
2019-05-12T12:10:29.403Z,100220.94
2019-05-12T12:13:03.694Z,100223.67
2019-05-12T12:15:34.707Z,100235.56
2019-05-12T12:18:13.292Z,100229.88
2019-05-12T12:20:44.105Z,100226.38
2019-05-12T12:23:18.731Z,100235.91
2019-05-12T12:25:53.278Z,100230.38
2019-05-12T12:28:25.610Z,100239.11
2019-05-12T12:31:01.894Z,100234.38
2019-05-12T12:33:38.648Z,100229.28
2019-05-12T12:36:08.964Z,100235.56
2019-05-12T12:38:40.937Z,100233.89
2019-05-12T12:41:13.487Z,100236.02
2019-05-12T12:43:45.790Z,100251.06
2019-05-12T12:46:25.677Z,100245.98
2019-05-12T12:49:00.427Z,100239.56
2019-05-12T12:51:34.143Z,100240.37
2019-05-12T12:54:07.298Z,100244.20
2019-05-12T12:56:39.575Z,100234.41
2019-05-12T12:59:14.560Z,100234.41
2019-05-12T13:01:46.297Z,100241.84
2019-05-12T13:04:18.733Z,100234.69
2019-05-12T13:06:51.286Z,100234.69
2019-05-12T13:09:24.750Z,100233.02
2019-05-12T13:11:57.488Z,100233.02
2019-05-12T13:14:34.612Z,100234.02
2019-05-12T13:17:04.242Z,100227.41
2019-05-12T13:19:43.676Z,100242.06
2019-05-12T13:22:19.134Z,100242.06
2019-05-12T13:24:58.331Z,100236.92
2019-05-12T13:27:29.263Z,100236.92
2019-05-12T13:30:05.288Z,100241.16
2019-05-12T13:32:38.042Z,100237.81
2019-05-12T13:35:16.550Z,100238.77
2019-05-12T13:37:50.463Z,100233.49
2019-05-12T13:40:23.264Z,100239.66
2019-05-12T13:42:54.592Z,100232.44
2019-05-12T13:45:27.046Z,100226.48
2019-05-12T13:47:58.858Z,100220.34
2019-05-12T13:50:31.366Z,100228.36
2019-05-12T13:53:08.614Z,100215.92
2019-05-12T13:55:42.683Z,100215.92
2019-05-12T13:58:10.298Z,100227.03
2019-05-12T14:00:50.881Z,100218.28
2019-05-12T14:03:50.661Z,100214.68
2019-05-12T14:06:31.566Z,100224.38
2019-05-12T14:08:57.681Z,100224.87
2019-05-12T14:11:30.050Z,100224.27
2019-05-12T14:14:10.811Z,100228.69
2019-05-12T14:16:36.619Z,100202.92
2019-05-12T14:19:09.298Z,100202.92
2019-05-12T14:21:43.426Z,100219.56
2019-05-12T14:24:15.783Z,100219.56
2019-05-12T14:26:53.380Z,100217.42
2019-05-12T14:29:29.263Z,100218.96
2019-05-12T14:32:03.152Z,100220.36
2019-05-12T14:34:34.378Z,100227.48
2019-05-12T14:37:10.255Z,100217.11
2019-05-12T14:39:46.230Z,100217.11
2019-05-12T14:42:16.044Z,100218.98
2019-05-12T14:44:49.833Z,100228.18
2019-05-12T14:47:25.663Z,100220.86
2019-05-12T14:49:56.689Z,100221.33
2019-05-12T14:52:30.099Z,100239.64
2019-05-12T14:55:03.412Z,100237.75
2019-05-12T14:57:39.222Z,100232.89
2019-05-12T15:00:16.168Z,100234.09
2019-05-12T15:02:45.520Z,100234.18
2019-05-12T15:05:18.368Z,100232.30
2019-05-12T15:07:54.401Z,100236.41
2019-05-12T15:10:26.054Z,100233.86
2019-05-12T15:12:58.457Z,100235.98
2019-05-12T15:15:33.453Z,100237.38
2019-05-12T15:18:10.126Z,100242.04
2019-05-12T15:20:48.967Z,100248.02
2019-05-12T15:23:15.591Z,100252.73
2019-05-12T15:25:50.892Z,100250.40
2019-05-12T15:28:23.642Z,100239.89
2019-05-12T15:31:00.379Z,100242.84
2019-05-12T15:33:33.613Z,100236.50
2019-05-12T15:36:09.838Z,100244.95
2019-05-12T15:38:43.723Z,100244.59
2019-05-12T15:41:19.970Z,100252.84
2019-05-12T15:43:53.653Z,100214.68
2019-05-12T15:46:26.110Z,100214.68
2019-05-12T15:50:04.069Z,100253.19
2019-05-12T15:52:42.278Z,100260.47
2019-05-12T15:55:13.663Z,100258.29
2019-05-12T15:57:47.490Z,100264.98
2019-05-12T16:00:21.288Z,100260.02
2019-05-12T16:02:53.724Z,100221.09
2019-05-12T16:05:30.830Z,100221.09
2019-05-12T16:08:00.557Z,100264.39
2019-05-12T16:10:33.306Z,100266.27
2019-05-12T16:13:05.832Z,100259.32
2019-05-12T16:15:38.293Z,100259.32
2019-05-12T16:18:10.749Z,100265.53
2019-05-12T16:20:44.308Z,100265.53
2019-05-12T16:23:25.062Z,100254.23
2019-05-12T16:25:54.127Z,100254.23
2019-05-12T16:28:26.793Z,100260.64
2019-05-12T16:31:06.720Z,100264.45
2019-05-12T16:33:36.365Z,100257.18
2019-05-12T16:36:11.403Z,100265.83
2019-05-12T16:38:44.489Z,100274.05
2019-05-12T16:41:19.867Z,100253.16
2019-05-12T16:43:53.753Z,100253.16
2019-05-12T16:46:27.061Z,100276.14
2019-05-12T16:49:03.619Z,100279.27
2019-05-12T16:51:36.607Z,100278.64
2019-05-12T16:54:09.319Z,100274.48
2019-05-12T16:56:43.467Z,100282.08
2019-05-12T16:59:21.803Z,100280.36
2019-05-12T17:01:54.257Z,100286.61
2019-05-12T17:04:26.822Z,100280.73
2019-05-12T17:06:59.334Z,100278.27
2019-05-12T17:09:33.199Z,100283.58
2019-05-12T17:12:05.739Z,100264.56
2019-05-12T17:14:47.985Z,100264.56
2019-05-12T17:19:57.471Z,100285.45
2019-05-12T17:22:29.874Z,100293.38
2019-05-12T17:25:04.964Z,100295.05
2019-05-12T17:27:36.902Z,100297.40
2019-05-12T17:30:13.379Z,100297.40
2019-05-12T17:32:57.828Z,100300.17
2019-05-12T17:35:26.996Z,100300.80
2019-05-12T17:37:58.501Z,100304.37
2019-05-12T17:40:30.916Z,100308.18
2019-05-12T17:43:11.610Z,100315.37
2019-05-12T17:45:39.296Z,100319.57
2019-05-12T17:48:15.941Z,100323.70
2019-05-12T17:50:50.586Z,100309.16
2019-05-12T17:53:24.319Z,100309.16
2019-05-12T17:55:56.775Z,100323.33
2019-05-12T17:58:29.690Z,100323.33
2019-05-12T18:01:03.768Z,100336.42
2019-05-12T18:03:39.328Z,100341.87
2019-05-12T18:06:10.507Z,100334.28
2019-05-12T18:08:44.292Z,100341.55
2019-05-12T18:11:17.358Z,100344.63
2019-05-12T18:13:49.786Z,100346.19
2019-05-12T18:16:24.949Z,100334.77
2019-05-12T18:18:58.535Z,100334.77
2019-05-12T18:21:31.765Z,100355.64
2019-05-12T18:24:10.977Z,100360.30
2019-05-12T18:26:47.126Z,100369.33
2019-05-12T18:29:16.397Z,100369.33
2019-05-12T18:31:48.833Z,100365.71
2019-05-12T18:34:25.255Z,100368.05
2019-05-12T18:36:59.684Z,100368.23
2019-05-12T18:39:31.252Z,100371.20
2019-05-12T18:42:03.680Z,100376.20
2019-05-12T18:44:37.293Z,100378.86
2019-05-12T18:47:09.608Z,100381.80
2019-05-12T18:49:47.748Z,100381.80
2019-05-12T18:52:18.579Z,100387.53
2019-05-12T18:54:52.668Z,100388.86
2019-05-12T18:57:25.405Z,100385.23
2019-05-12T19:00:03.810Z,100388.38
2019-05-12T19:02:33.468Z,100383.58
2019-05-12T19:05:12.828Z,100393.16
2019-05-12T19:07:43.880Z,100395.22
2019-05-12T19:10:16.397Z,100395.30
2019-05-12T19:12:51.741Z,100398.45
2019-05-12T19:15:24.817Z,100398.45
2019-05-12T19:17:57.438Z,100402.87
2019-05-12T19:20:34.486Z,100409.41
2019-05-12T19:23:04.313Z,100415.27
2019-05-12T19:25:40.715Z,100420.64
2019-05-12T19:28:13.520Z,100420.64
2019-05-12T19:30:46.504Z,100431.55
2019-05-12T19:33:18.901Z,100424.21
2019-05-12T19:46:25.463Z,100442.10
2019-05-12T19:48:57.883Z,100443.20
2019-05-12T19:51:30.383Z,100452.22
2019-05-12T19:54:03.509Z,100447.45
2019-05-12T19:56:39.605Z,100447.45
2019-05-12T19:59:14.673Z,100449.47
2019-05-12T20:01:47.303Z,100453.64
2019-05-12T20:04:30.871Z,100434.91
2019-05-12T20:06:55.382Z,100434.91
2019-05-12T20:09:28.306Z,100456.27
2019-05-12T20:15:45.038Z,100458.12
2019-05-12T20:18:17.489Z,100455.53
2019-05-12T20:20:50.623Z,100458.38
2019-05-12T20:23:24.603Z,100444.53
2019-05-12T20:25:58.751Z,100444.53
2019-05-12T20:28:31.520Z,100465.19
2019-05-12T20:31:06.145Z,100466.02
2019-05-12T20:33:39.310Z,100465.52
2019-05-12T20:36:14.267Z,100477.59
2019-05-12T20:38:46.813Z,100477.59
2019-05-12T20:41:23.799Z,100478.73
2019-05-12T20:43:54.041Z,100480.53
2019-05-12T20:46:26.447Z,100477.25
2019-05-12T20:49:01.219Z,100469.16
2019-05-12T20:51:34.056Z,100473.45
2019-05-12T20:54:14.093Z,100484.19
2019-05-12T20:56:40.715Z,100480.86
2019-05-12T20:59:21.690Z,100480.86
2019-05-12T21:01:50.677Z,100478.89
2019-05-12T21:04:31.152Z,100481.86
2019-05-12T21:06:58.301Z,100480.54
2019-05-12T21:09:30.709Z,100476.59
2019-05-12T21:12:03.286Z,100476.59
2019-05-12T21:14:35.647Z,100449.50
2019-05-12T21:17:09.404Z,100449.50
2019-05-12T21:19:55.655Z,100476.92
2019-05-12T21:22:19.305Z,100483.52
2019-05-12T21:24:53.385Z,100458.75
2019-05-12T21:27:26.075Z,100458.75
2019-05-12T21:30:00.698Z,100473.95
2019-05-12T21:32:33.915Z,100477.89
2019-05-12T21:35:18.441Z,100476.59
2019-05-12T21:37:45.872Z,100482.50
2019-05-12T21:40:15.888Z,100484.17
2019-05-12T21:42:48.412Z,100484.17
2019-05-12T21:45:28.706Z,100486.64
2019-05-12T21:47:56.808Z,100480.35
2019-05-12T21:50:37.949Z,100485.48
2019-05-12T21:53:04.323Z,100476.89
2019-05-12T21:55:37.346Z,100486.65
2019-05-12T21:58:12.157Z,100465.81
2019-05-12T22:00:59.502Z,100465.81
2019-05-12T22:03:28.295Z,100477.37
2019-05-12T22:06:06.417Z,100480.67
2019-05-12T22:08:35.293Z,100486.47
2019-05-12T22:11:11.619Z,100476.23
2019-05-12T22:13:46.799Z,100476.23
2019-05-12T22:16:17.635Z,100492.73
2019-05-12T22:18:56.139Z,100496.03
2019-05-12T22:21:24.584Z,100499.95
2019-05-12T22:23:57.294Z,100499.95
2019-05-12T22:26:30.724Z,100503.48
2019-05-12T22:29:04.441Z,100503.48
2019-05-12T22:31:48.211Z,100508.20
2019-05-12T22:34:19.493Z,100509.91
2019-05-12T22:36:59.055Z,100517.50
2019-05-12T22:39:34.167Z,100522.06
2019-05-12T22:42:11.487Z,100515.70
2019-05-12T22:44:43.778Z,100522.13
2019-05-12T22:47:17.598Z,100519.45
2019-05-12T22:49:52.069Z,100524.07
2019-05-12T22:52:25.308Z,100519.72
2019-05-12T22:55:03.493Z,100506.01
2019-05-12T22:57:38.245Z,100515.49
2019-05-12T23:00:13.520Z,100515.49
2019-05-12T23:02:45.309Z,100527.63
2019-05-12T23:05:20.519Z,100535.19
2019-05-12T23:07:54.292Z,100535.19
2019-05-12T23:10:33.063Z,100533.83
2019-05-12T23:13:06.316Z,100538.63
2019-05-12T23:15:45.207Z,100536.64
2019-05-12T23:18:13.659Z,100540.72
2019-05-12T23:20:46.440Z,100538.57
2019-05-12T23:23:19.012Z,100538.99
2019-05-12T23:26:00.103Z,100533.56
2019-05-12T23:28:25.729Z,100526.15
2019-05-12T23:30:58.300Z,100526.15
2019-05-12T23:33:36.545Z,100522.91
2019-05-12T23:36:09.659Z,100503.56
2019-05-12T23:38:38.899Z,100503.56
2019-05-12T23:41:13.437Z,100529.95
2019-05-12T23:43:45.407Z,100530.45
2019-05-12T23:46:17.693Z,100540.33
2019-05-12T23:48:50.299Z,100534.16
2019-05-12T23:51:23.597Z,100530.98
2019-05-12T23:53:56.583Z,100530.98
2019-05-12T23:56:29.173Z,100525.95
2019-05-12T23:59:01.457Z,100526.08
